La Canada Flintridge, CA (91011)

11:23 PM PDT on May 23, 2015 (GMT -0700)
City of La Canada Flintridge, Cerro Negro | | Change Station
CLOSE
Current Station
Personal Weather Station
Location: La Cañada Flintridge, CA
Elevation: 1854 ft
Nearby Weather Stations

Elev 1854 ft 34.19 °N, 118.21 °W | Updated 48 seconds ago

Partly Cloudy
Partly Cloudy
55.2 °F
Feels Like 55.2 °F
N
1.1
Wind Variable Wind from ESE
Gusts 2.5 mph

Today
High -- | Low -- °F
--% Chance of Precip.
Yesterday
High -- | Low -- °F
Precip. -- in
5:45 AM 7:53 PM
Waxing Crescent, 36% visible
Pressure 29.99 in
Visibility 10.0 miles
Clouds Overcast 4900 ft
Dew Point 50 °F
Humidity 83%
Rainfall 0.00 in
Snow Depth Not available.
UV 0.0 out of 12
Pollen 4.80 out of 12
Air Quality Not available.
Flu Activity Sporadic
METAR KBUR 240553Z 18004KT 10SM OVC049 16/10 A3002 RMK AO2 SLP156 T01560100 10200 20156 50001

More Conditions Fewer Conditions

Pressure 29.99 in
Visibility 10.0 miles
Clouds Overcast 4900 ft
Dew Point 50 °F
Humidity 83%
Rainfall 0.00 in
Snow Depth Not available.
UV 0.0 out of 12
Pollen 4.80 out of 12
Air Quality Not available.
Flu Activity Sporadic
METAR KBUR 240553Z 18004KT 10SM OVC049 16/10 A3002 RMK AO2 SLP156 T01560100 10200 20156 50001

More Conditions Fewer Conditions

10-Day Weather Forecast

Almanac

Astronomy

May. 23, 2015 Rise Set
Actual Time
Civil Twilight
Nautical Twilight
Astronomical Twilight
Moon
Length of Visible Light
Length of Day
Tomorrow will be .
, % of the Moon is Illuminated

Today's Extremes

State Highs State Lows

Community

WunderPhotos

Upload Photos

1,823,694 photos uploaded!

WunderBlogs® & News

Nearby

Air Quality

  Air Quality AQ Index Pollutant
Not available.

Snow Depth

Station Depth Elevation

Earthquake Activity

City Distance Mag. Time & Date
Minimum magnitude displayed is 2.5.

Coastal Water Temperatures

Place Temperature

Stations

Nearby Weather Stations

Station Location Temp. Windchill Dew Point Humidity Wind Precip. Elev Updated Type